Terminal Aerodrome Forecast
Issued by NWS Blacksburg, VA

Home | Current Version | Previous Version | Text Only | Print | Product List | Glossary On
Versions: 1 2 3 4 5 6 7 8 9 10 11 12 13 14 15
000
FTUS41 KRNK 230704 AAA
TAFROA
TAF AMD
KROA 230704Z 2307/2406 00000KT 1/4SM FG OVC001
     FM231400 00000KT 3SM BR BKN004
     FM231600 20004KT P6SM SCT040
     FM231800 19004KT P6SM BKN040=

USA.gov is the U.S. government's official web portal to all federal, state and local government web resources and services.